Time;durP1;ratioP1;P1;durP2;ratioP2;P2;SDS_P1;SDS_P2;PMS_P1;PMS_P2;Temp;Humidity;BMP_temperature;BMP_pressure;BME280_temperature;BME280_humidity;BME280_pressure;Samples;Min_cycle;Max_cycle;Signal;HPM_P1;HPM_P2
2022/07/15 00:01:28;;;;;;;15.95;14.07;;;;;;;;;;5021608;28;20041;-73
2022/07/15 00:03:54;;;;;;;27.45;21.95;;;;;;;;;;5020488;28;20014;-72
2022/07/15 00:06:21;;;;;;;24.52;22.02;;;;;;;;;;5025736;28;20030;-73
2022/07/15 00:08:47;;;;;;;24.88;20.70;;;;;;;;;;5022405;28;20100;-74
2022/07/15 00:11:13;;;;;;;19.52;14.80;;;;;;;;;;5021951;28;20034;-74
2022/07/15 00:13:39;;;;;;;10.77;9.65;;;;;;;;;;5021429;28;20026;-73
2022/07/15 00:16:05;;;;;;;10.57;7.68;;;;;;;;;;5021100;28;20026;-73
2022/07/15 00:18:31;;;;;;;5.05;4.30;;;;;;;;;;5022213;28;20029;-72
2022/07/15 00:20:58;;;;;;;4.85;4.32;;;;;;;;;;5021678;28;20038;-74
2022/07/15 00:23:24;;;;;;;7.00;3.40;;;;;;;;;;5002453;28;20024;-73
2022/07/15 00:25:50;;;;;;;4.93;3.10;;;;;;;;;;5004185;28;20149;-73
2022/07/15 00:28:16;;;;;;;2.88;2.58;;;;;;;;;;5022072;28;20024;-73
2022/07/15 00:30:42;;;;;;;2.88;2.50;;;;;;;;;;5020017;28;20054;-73
2022/07/15 00:33:09;;;;;;;4.50;2.45;;;;;;;;;;4999430;28;20425;-73
2022/07/15 00:35:36;;;;;;;2.80;2.42;;;;;;;;;;5017581;28;20032;-73
2022/07/15 00:38:03;;;;;;;2.83;2.22;;;;;;;;;;5020892;28;20033;-73
2022/07/15 00:40:29;;;;;;;3.42;2.28;;;;;;;;;;5020660;28;20423;-73
2022/07/15 00:42:55;;;;;;;2.85;1.98;;;;;;;;;;5019686;28;20025;-74
2022/07/15 00:45:23;;;;;;;3.30;2.10;;;;;;;;;;5011199;28;20022;-72
2022/07/15 00:47:51;;;;;;;2.17;1.83;;;;;;;;;;5022502;28;20043;-73
2022/07/15 00:50:18;;;;;;;2.10;1.75;;;;;;;;;;5031814;28;20044;-73
2022/07/15 00:52:45;;;;;;;3.53;1.77;;;;;;;;;;5020739;28;20449;-73
2022/07/15 00:55:12;;;;;;;2.80;1.70;;;;;;;;;;5034792;28;20041;-73
2022/07/15 00:57:43;;;;;;;2.78;1.90;;;;;;;;;;5013971;28;20033;-72
2022/07/15 01:00:10;;;;;;;2.40;1.95;;;;;;;;;;5029908;28;20029;-72
2022/07/15 01:02:37;;;;;;;3.83;2.28;;;;;;;;;;5028362;28;20025;-72
2022/07/15 01:05:04;;;;;;;2.67;1.80;;;;;;;;;;5030356;28;20810;-73
2022/07/15 01:07:30;;;;;;;4.25;1.85;;;;;;;;;;5023810;28;20033;-73
2022/07/15 01:09:57;;;;;;;2.25;1.95;;;;;;;;;;5029054;28;20563;-73
2022/07/15 01:12:23;;;;;;;3.08;2.00;;;;;;;;;;5017276;28;20067;-72
2022/07/15 01:14:49;;;;;;;3.85;1.92;;;;;;;;;;5018374;28;20091;-74
2022/07/15 01:17:16;;;;;;;3.25;1.90;;;;;;;;;;5035382;28;20037;-74
2022/07/15 01:19:42;;;;;;;3.80;2.35;;;;;;;;;;5017104;28;20033;-72
2022/07/15 01:22:08;;;;;;;6.60;2.75;;;;;;;;;;5029649;28;20082;-72
2022/07/15 01:24:35;;;;;;;3.22;2.28;;;;;;;;;;5017300;28;20052;-73
2022/07/15 01:27:01;;;;;;;4.45;2.30;;;;;;;;;;5035508;28;20029;-73
2022/07/15 01:29:28;;;;;;;2.92;2.40;;;;;;;;;;5036748;28;20613;-73
2022/07/15 01:31:54;;;;;;;4.88;2.22;;;;;;;;;;5037664;28;20540;-73
2022/07/15 01:34:21;;;;;;;3.78;2.30;;;;;;;;;;5020961;28;20087;-73
2022/07/15 01:36:47;;;;;;;2.83;1.90;;;;;;;;;;5039846;28;20615;-74
2022/07/15 01:39:13;;;;;;;3.30;2.05;;;;;;;;;;5022829;28;20391;-73
2022/07/15 01:41:40;;;;;;;3.08;2.03;;;;;;;;;;5041478;28;20028;-73
2022/07/15 01:44:06;;;;;;;3.50;2.00;;;;;;;;;;5037197;28;20029;-73
2022/07/15 01:46:32;;;;;;;2.30;2.10;;;;;;;;;;5039484;28;20037;-73
2022/07/15 01:51:43;;;;;;;2.58;1.83;;;;;;;;;;5035237;28;20096;-73
2022/07/15 01:54:09;;;;;;;3.40;2.10;;;;;;;;;;5035387;28;20025;-72
2022/07/15 01:56:36;;;;;;;55.28;4.78;;;;;;;;;;5037125;28;20082;-72
2022/07/15 01:59:02;;;;;;;3.55;2.10;;;;;;;;;;5048124;28;20502;-72
2022/07/15 02:01:29;;;;;;;16.83;2.92;;;;;;;;;;5037718;28;20039;-73
2022/07/15 02:03:56;;;;;;;3.70;2.10;;;;;;;;;;5018377;28;20029;-73
2022/07/15 02:06:22;;;;;;;2.97;2.20;;;;;;;;;;5041493;28;20087;-72
2022/07/15 02:08:48;;;;;;;2.65;2.25;;;;;;;;;;5039857;28;20048;-73
2022/07/15 02:11:15;;;;;;;3.28;2.13;;;;;;;;;;5040747;28;20049;-73
2022/07/15 02:13:41;;;;;;;3.45;2.35;;;;;;;;;;5042440;28;20040;-74
2022/07/15 02:16:07;;;;;;;3.45;2.28;;;;;;;;;;5041932;28;20080;-73
2022/07/15 02:18:34;;;;;;;17.42;3.67;;;;;;;;;;5037310;28;20032;-72
2022/07/15 02:21:02;;;;;;;4.85;2.97;;;;;;;;;;5039641;28;20147;-74
2022/07/15 02:23:28;;;;;;;8.88;2.22;;;;;;;;;;5032421;28;20025;-73
2022/07/15 02:25:54;;;;;;;2.92;2.28;;;;;;;;;;5036835;28;20166;-73
2022/07/15 02:28:20;;;;;;;4.45;2.70;;;;;;;;;;5036587;28;20481;-72
2022/07/15 02:30:47;;;;;;;5.15;2.38;;;;;;;;;;5035686;28;20037;-72
2022/07/15 02:33:13;;;;;;;3.05;2.28;;;;;;;;;;5035759;28;20039;-73
2022/07/15 02:35:40;;;;;;;3.17;2.40;;;;;;;;;;5035736;28;20028;-72
2022/07/15 02:38:07;;;;;;;4.10;2.67;;;;;;;;;;5036553;28;20029;-72
2022/07/15 02:40:33;;;;;;;2.50;2.30;;;;;;;;;;5041101;28;20096;-74
2022/07/15 02:43:00;;;;;;;4.03;2.40;;;;;;;;;;5045126;28;20079;-73
2022/07/15 02:45:28;;;;;;;3.00;2.47;;;;;;;;;;5036893;28;20024;-74
2022/07/15 02:47:54;;;;;;;2.58;2.38;;;;;;;;;;5039735;28;21473;-73
2022/07/15 02:50:21;;;;;;;4.95;2.25;;;;;;;;;;5036795;28;20592;-73
2022/07/15 02:52:47;;;;;;;4.93;2.60;;;;;;;;;;5041307;28;20047;-73
2022/07/15 02:55:14;;;;;;;2.95;2.50;;;;;;;;;;5018591;28;20025;-72
2022/07/15 02:57:40;;;;;;;2.17;2.00;;;;;;;;;;5042229;28;20457;-73
2022/07/15 03:00:08;;;;;;;3.80;2.50;;;;;;;;;;5040218;28;20078;-73
2022/07/15 03:02:34;;;;;;;3.65;2.30;;;;;;;;;;5041307;28;20040;-72
2022/07/15 03:05:00;;;;;;;4.05;2.15;;;;;;;;;;5041921;28;20076;-73
2022/07/15 03:07:30;;;;;;;2.75;2.30;;;;;;;;;;5042212;28;20489;-73
2022/07/15 03:09:57;;;;;;;2.47;2.05;;;;;;;;;;5041098;28;20043;-73
2022/07/15 03:12:23;;;;;;;2.75;2.17;;;;;;;;;;5040900;28;20033;-72
2022/07/15 03:14:49;;;;;;;3.75;2.65;;;;;;;;;;5018071;28;20017;-72
2022/07/15 03:17:15;;;;;;;4.18;3.28;;;;;;;;;;5036358;28;20025;-73
